Time;durP1;ratioP1;P1;durP2;ratioP2;P2;SDS_P1;SDS_P2;PMS_P1;PMS_P2;Temp;Humidity;BMP_temperature;BMP_pressure;BME280_temperature;BME280_humidity;BME280_pressure;Samples;Min_cycle;Max_cycle;Signal;HPM_P1;HPM_P2
2022/12/27 00:01:55;;;;;;;;;;;4.80;99.90;;;;;;5034833;28;19909;-83
2022/12/27 00:04:21;;;;;;;;;;;4.90;99.90;;;;;;5035157;28;19909;-84
2022/12/27 00:06:46;;;;;;;;;;;4.90;99.90;;;;;;5035321;28;19909;-83
2022/12/27 00:09:12;;;;;;;;;;;4.90;99.90;;;;;;5035696;28;19916;-83
2022/12/27 00:11:38;;;;;;;;;;;4.90;99.90;;;;;;5035447;28;19909;-84
2022/12/27 00:14:04;;;;;;;;;;;4.90;99.90;;;;;;5035297;28;20282;-83
2022/12/27 00:16:30;;;;;;;;;;;4.90;99.90;;;;;;5036870;28;20345;-83
2022/12/27 00:18:56;;;;;;;;;;;4.90;99.90;;;;;;5034975;28;19913;-84
2022/12/27 00:21:22;;;;;;;;;;;4.90;99.90;;;;;;5034470;28;19909;-84
2022/12/27 00:23:49;;;;;;;;;;;4.90;99.90;;;;;;5034937;28;19975;-85
2022/12/27 00:26:16;;;;;;;;;;;5.00;99.90;;;;;;5034583;28;19909;-85
2022/12/27 00:28:42;;;;;;;;;;;4.90;99.90;;;;;;5035188;28;19913;-85
2022/12/27 00:31:07;;;;;;;;;;;4.90;99.90;;;;;;5034517;28;20004;-83
2022/12/27 00:33:33;;;;;;;;;;;4.90;99.90;;;;;;5035832;28;19909;-83
2022/12/27 00:36:00;;;;;;;;;;;4.90;99.90;;;;;;5035749;28;20111;-83
2022/12/27 00:38:26;;;;;;;;;;;4.90;99.90;;;;;;5036297;28;20406;-83
2022/12/27 00:40:51;;;;;;;;;;;4.90;99.90;;;;;;5034542;28;19917;-85
2022/12/27 00:43:17;;;;;;;;;;;4.90;99.90;;;;;;5034551;28;20011;-83
2022/12/27 00:45:43;;;;;;;;;;;4.90;99.90;;;;;;5034201;28;19916;-83
2022/12/27 00:48:08;;;;;;;;;;;5.00;99.90;;;;;;5034540;28;19944;-84
2022/12/27 00:50:34;;;;;;;;;;;5.00;99.90;;;;;;5034450;28;19936;-83
2022/12/27 00:52:59;;;;;;;;;;;4.90;99.90;;;;;;5035233;28;19925;-83
2022/12/27 00:55:25;;;;;;;;;;;5.00;99.90;;;;;;5035374;28;19945;-83
2022/12/27 00:57:50;;;;;;;;;;;4.90;99.90;;;;;;5034327;28;19910;-84
2022/12/27 01:00:15;;;;;;;;;;;4.90;99.90;;;;;;5034580;28;19971;-84
2022/12/27 01:02:41;;;;;;;;;;;4.90;99.90;;;;;;5034192;28;20016;-83
2022/12/27 01:05:07;;;;;;;;;;;4.90;99.90;;;;;;5033846;28;19916;-84
2022/12/27 01:07:32;;;;;;;;;;;4.90;99.90;;;;;;5034128;28;19970;-84
2022/12/27 01:09:58;;;;;;;;;;;4.90;99.90;;;;;;5035286;28;19913;-83
2022/12/27 01:12:23;;;;;;;;;;;4.90;99.90;;;;;;5033379;28;19909;-84
2022/12/27 01:14:49;;;;;;;;;;;4.90;99.90;;;;;;5035029;28;19913;-85
2022/12/27 01:17:14;;;;;;;;;;;4.90;99.90;;;;;;5033531;28;20131;-84
2022/12/27 01:19:40;;;;;;;;;;;4.80;99.90;;;;;;5034967;28;19916;-84
2022/12/27 01:22:05;;;;;;;;;;;4.80;99.90;;;;;;5034699;28;19909;-84
2022/12/27 01:24:31;;;;;;;;;;;4.90;99.90;;;;;;5035249;28;19909;-84
2022/12/27 01:26:57;;;;;;;;;;;4.80;99.90;;;;;;5034284;28;19909;-84
2022/12/27 01:29:22;;;;;;;;;;;4.90;99.90;;;;;;5033733;28;19963;-83
2022/12/27 01:31:48;;;;;;;;;;;4.90;99.90;;;;;;5034885;28;19983;-83
2022/12/27 01:34:15;;;;;;;;;;;4.90;99.90;;;;;;5033445;28;20382;-83
2022/12/27 01:36:40;;;;;;;;;;;4.90;99.90;;;;;;5034074;28;19909;-84
2022/12/27 01:39:07;;;;;;;;;;;4.90;99.90;;;;;;5033472;28;19909;-83
2022/12/27 01:44:41;;;;;;;;;;;4.90;99.90;;;;;;5035174;28;20038;-83
2022/12/27 01:47:29;;;;;;;;;;;5.00;99.90;;;;;;5033623;28;19909;-83
2022/12/27 01:49:55;;;;;;;;;;;5.00;99.90;;;;;;5034715;28;20433;-83
2022/12/27 01:52:21;;;;;;;;;;;4.90;99.90;;;;;;5067629;22;19925;-81
2022/12/27 01:54:46;;;;;;;;;;;5.00;99.90;;;;;;5068788;28;19912;-81
2022/12/27 01:57:12;;;;;;;;;;;5.00;99.90;;;;;;5049118;28;20354;-80
2022/12/27 01:59:37;;;;;;;;;;;5.10;99.90;;;;;;5048120;28;19997;-81
2022/12/27 02:02:03;;;;;;;;;;;5.10;99.90;;;;;;5043783;28;19912;-81
2022/12/27 02:04:30;;;;;;;;;;;5.10;99.90;;;;;;5050389;28;19909;-81
2022/12/27 02:06:56;;;;;;;;;;;5.00;99.90;;;;;;5041951;28;19916;-82
2022/12/27 02:09:48;;;;;;;;;;;5.10;99.90;;;;;;5033936;28;19909;-81
2022/12/27 02:12:13;;;;;;;;;;;5.00;99.90;;;;;;5033358;28;19909;-81
2022/12/27 02:14:41;;;;;;;;;;;5.10;99.90;;;;;;5033520;28;19920;-81
2022/12/27 02:17:11;;;;;;;;;;;5.10;99.90;;;;;;5033426;28;19960;-81
2022/12/27 02:19:39;;;;;;;;;;;5.10;99.90;;;;;;5033586;28;19967;-80
2022/12/27 02:22:08;;;;;;;;;;;5.10;99.90;;;;;;5030935;28;19917;-81
2022/12/27 02:24:33;;;;;;;;;;;5.10;99.90;;;;;;5039107;28;19982;-80
2022/12/27 02:27:02;;;;;;;;;;;5.10;99.90;;;;;;5045259;28;19913;-81
2022/12/27 02:30:00;;;;;;;;;;;5.20;99.90;;;;;;5068757;28;19913;-81
2022/12/27 02:32:37;;;;;;;;;;;5.20;99.90;;;;;;5038478;28;20451;-80
2022/12/27 02:35:06;;;;;;;;;;;5.20;99.90;;;;;;5035598;28;19909;-80
2022/12/27 02:37:33;;;;;;;;;;;5.20;99.90;;;;;;5037149;28;19909;-82
2022/12/27 02:53:02;;;;;;;;;;;5.10;99.90;;;;;;5053330;28;19913;-81
2022/12/27 02:54:15;;;;;;;;;;;5.10;99.90;;;;;;5053088;28;20377;-82
2022/12/27 02:57:09;;;;;;;;;;;5.10;99.90;;;;;;5068458;28;19909;-82
2022/12/27 03:06:38;;;;;;;;;;;5.10;99.90;;;;;;5053434;28;20028;-81
2022/12/27 03:08:43;;;;;;;;;;;5.10;99.90;;;;;;5052668;28;20026;-79
2022/12/27 03:16:54;;;;;;;;;;;5.00;99.90;;;;;;5053172;28;19915;-81
2022/12/27 03:27:42;;;;;;;;;;;5.10;99.90;;;;;;5053228;28;19959;-80
2022/12/27 03:33:13;;;;;;;;;;;5.10;99.90;;;;;;5052844;28;19916;-80
2022/12/27 03:38:01;;;;;;;;;;;5.10;99.90;;;;;;5052967;28;19908;-82
2022/12/27 03:38:33;;;;;;;;;;;5.10;99.90;;;;;;5052770;28;20320;-82
2022/12/27 03:43:44;;;;;;;;;;;5.10;99.90;;;;;;5052744;28;19986;-81
2022/12/27 03:46:33;;;;;;;;;;;5.00;99.90;;;;;;5052655;28;20375;-80
2022/12/27 03:49:10;;;;;;;;;;;5.10;99.90;;;;;;5052515;28;19996;-82
2022/12/27 03:51:41;;;;;;;;;;;5.00;99.90;;;;;;5052184;28;19913;-81
2022/12/27 03:54:11;;;;;;;;;;;5.10;99.90;;;;;;5052391;28;19908;-80
2022/12/27 03:56:37;;;;;;;;;;;5.10;99.90;;;;;;5052417;28;20007;-81
2022/12/27 03:59:03;;;;;;;;;;;5.10;99.90;;;;;;5052445;28;19920;-82
2022/12/27 04:01:29;;;;;;;;;;;5.10;99.90;;;;;;5055065;28;20301;-81
2022/12/27 04:03:54;;;;;;;;;;;5.10;99.90;;;;;;5055954;28;19913;-83
2022/12/27 04:06:20;;;;;;;;;;;5.10;99.90;;;;;;5071470;28;20019;-81
2022/12/27 04:36:07;;;;;;;;;;;5.20;99.90;;;;;;5055308;28;20282;-82
2022/12/27 04:38:33;;;;;;;;;;;5.10;99.90;;;;;;5055345;28;19913;-82
2022/12/27 04:54:57;;;;;;;;;;;5.20;99.90;;;;;;5055290;28;20016;-81
2022/12/27 04:57:23;;;;;;;;;;;5.20;99.90;;;;;;5054982;28;19963;-80
2022/12/27 05:02:32;;;;;;;;;;;5.30;99.90;;;;;;5054849;28;19919;-82
2022/12/27 05:04:58;;;;;;;;;;;5.30;99.90;;;;;;5038586;28;19913;-80
2022/12/27 05:15:36;;;;;;;;;;;5.40;99.90;;;;;;5015161;28;20021;-81
2022/12/27 05:18:02;;;;;;;;;;;5.40;99.90;;;;;;5014951;28;20039;-81
2022/12/27 05:20:28;;;;;;;;;;;5.50;99.90;;;;;;5030075;28;19910;-81
2022/12/27 05:25:41;;;;;;;;;;;5.60;99.90;;;;;;5037053;28;20004;-81
2022/12/27 05:28:08;;;;;;;;;;;5.60;99.90;;;;;;5042479;28;19915;-80
2022/12/27 05:30:34;;;;;;;;;;;5.70;99.90;;;;;;5042539;28;19913;-82
2022/12/27 05:32:59;;;;;;;;;;;5.70;99.90;;;;;;5042122;28;19909;-80
2022/12/27 05:35:25;;;;;;;;;;;5.70;99.90;;;;;;5034080;28;20062;-81
2022/12/27 05:37:52;;;;;;;;;;;5.70;99.90;;;;;;5032817;28;19959;-81
2022/12/27 05:40:17;;;;;;;;;;;5.60;99.90;;;;;;5034099;28;19932;-83
2022/12/27 05:42:43;;;;;;;;;;;5.60;99.90;;;;;;5033647;28;19913;-81
2022/12/27 05:45:08;;;;;;;;;;;5.60;99.90;;;;;;5033937;28;19913;-80
2022/12/27 05:47:34;;;;;;;;;;;5.60;99.90;;;;;;5034250;28;19910;-81
2022/12/27 05:49:59;;;;;;;;;;;5.60;99.90;;;;;;5032784;28;19909;-80
2022/12/27 05:52:25;;;;;;;;;;;5.50;99.90;;;;;;5033601;28;19917;-80
2022/12/27 05:54:50;;;;;;;;;;;5.50;99.90;;;;;;5033992;28;19909;-80
2022/12/27 05:57:15;;;;;;;;;;;5.50;99.90;;;;;;5032626;28;19944;-80
2022/12/27 05:59:41;;;;;;;;;;;5.50;99.90;;;;;;5033701;28;19915;-81
2022/12/27 06:02:06;;;;;;;;;;;5.40;99.90;;;;;;5033564;28;19909;-80
2022/12/27 06:04:32;;;;;;;;;;;5.50;99.90;;;;;;5033749;28;19913;-82
2022/12/27 06:06:58;;;;;;;;;;;5.50;99.90;;;;;;5032383;28;19932;-80
2022/12/27 06:09:24;;;;;;;;;;;5.40;99.90;;;;;;5032522;28;19949;-81
2022/12/27 06:11:49;;;;;;;;;;;5.50;99.90;;;;;;5033349;28;19916;-80
2022/12/27 06:14:15;;;;;;;;;;;5.50;99.90;;;;;;5033563;28;19909;-81
2022/12/27 06:16:40;;;;;;;;;;;5.50;99.90;;;;;;5033532;28;19972;-82
2022/12/27 06:19:06;;;;;;;;;;;5.40;99.90;;;;;;5032126;28;20274;-82
2022/12/27 06:21:31;;;;;;;;;;;5.40;99.90;;;;;;5033164;28;19916;-80
2022/12/27 06:23:56;;;;;;;;;;;5.50;99.90;;;;;;5032805;28;19913;-81
2022/12/27 06:26:23;;;;;;;;;;;5.40;99.90;;;;;;5032030;28;19979;-80
2022/12/27 06:28:49;;;;;;;;;;;5.50;99.90;;;;;;5033167;28;19960;-83
2022/12/27 06:31:15;;;;;;;;;;;5.40;99.90;;;;;;5031755;28;19963;-81
2022/12/27 06:33:41;;;;;;;;;;;5.40;99.90;;;;;;5033628;28;19916;-81
2022/12/27 06:36:07;;;;;;;;;;;5.40;99.90;;;;;;5033368;28;19909;-82
2022/12/27 06:38:32;;;;;;;;;;;5.30;99.90;;;;;;5032093;28;20281;-82
2022/12/27 06:41:01;;;;;;;;;;;5.30;99.90;;;;;;5031430;28;19913;-80
2022/12/27 06:43:27;;;;;;;;;;;5.30;99.90;;;;;;5032992;28;20263;-81
2022/12/27 06:46:00;;;;;;;;;;;5.30;99.90;;;;;;5031781;28;19916;-82
2022/12/27 06:48:26;;;;;;;;;;;5.20;99.90;;;;;;5033254;28;19913;-82
2022/12/27 06:50:51;;;;;;;;;;;5.20;99.90;;;;;;5032899;28;20496;-80
2022/12/27 06:53:16;;;;;;;;;;;5.20;99.90;;;;;;5032849;28;19924;-81
2022/12/27 06:55:42;;;;;;;;;;;5.20;99.90;;;;;;5032965;28;19964;-80
2022/12/27 06:58:07;;;;;;;;;;;5.20;99.90;;;;;;5031695;28;20043;-82
2022/12/27 07:00:33;;;;;;;;;;;5.30;99.90;;;;;;5033104;28;19918;-82
2022/12/27 07:02:58;;;;;;;;;;;5.30;99.90;;;;;;5031021;28;19917;-81
2022/12/27 07:05:24;;;;;;;;;;;5.30;99.90;;;;;;5031588;28;19909;-81
2022/12/27 07:07:52;;;;;;;;;;;5.20;99.90;;;;;;5033083;28;20459;-80
2022/12/27 07:10:17;;;;;;;;;;;5.20;99.90;;;;;;5032970;28;19910;-81
2022/12/27 07:12:43;;;;;;;;;;;5.20;99.90;;;;;;5032551;28;19909;-80
2022/12/27 07:15:08;;;;;;;;;;;5.20;99.90;;;;;;5033121;28;20260;-79
2022/12/27 07:17:34;;;;;;;;;;;5.20;99.90;;;;;;5032628;28;19913;-81
2022/12/27 07:20:00;;;;;;;;;;;5.20;99.90;;;;;;5032917;28;19909;-82
2022/12/27 07:22:26;;;;;;;;;;;5.10;99.90;;;;;;5031236;28;19916;-80
2022/12/27 07:24:52;;;;;;;;;;;5.20;99.90;;;;;;5032516;28;19932;-80
2022/12/27 07:27:17;;;;;;;;;;;5.10;99.90;;;;;;5031244;28;20326;-81
2022/12/27 07:29:43;;;;;;;;;;;5.10;99.90;;;;;;5040794;28;19951;-81
2022/12/27 07:32:08;;;;;;;;;;;5.10;99.90;;;;;;5044990;28;20313;-81
2022/12/27 07:34:33;;;;;;;;;;;5.10;99.90;;;;;;5032793;28;19912;-81
2022/12/27 07:36:59;;;;;;;;;;;5.10;99.90;;;;;;5036367;28;19916;-81
2022/12/27 07:39:24;;;;;;;;;;;5.10;99.90;;;;;;5036408;28;19951;-80
2022/12/27 07:41:50;;;;;;;;;;;5.20;99.90;;;;;;5034816;28;19917;-81
2022/12/27 07:44:15;;;;;;;;;;;5.20;99.90;;;;;;5036391;28;20371;-80
2022/12/27 07:46:41;;;;;;;;;;;5.20;99.90;;;;;;5036328;28;19916;-79
2022/12/27 07:49:09;;;;;;;;;;;5.20;99.90;;;;;;5034835;28;20433;-80
2022/12/27 07:51:34;;;;;;;;;;;5.20;99.90;;;;;;5035735;28;20410;-80
2022/12/27 07:54:00;;;;;;;;;;;5.20;99.90;;;;;;5057655;23;19961;-82
2022/12/27 07:56:26;;;;;;;;;;;5.20;99.90;;;;;;5039173;28;19932;-82
2022/12/27 07:58:52;;;;;;;;;;;5.20;99.90;;;;;;5024058;28;19936;-82
2022/12/27 08:01:18;;;;;;;;;;;5.20;99.90;;;;;;5025923;28;19910;-81
2022/12/27 08:03:44;;;;;;;;;;;5.20;99.90;;;;;;5015768;28;19918;-82
2022/12/27 08:06:28;;;;;;;;;;;5.20;99.90;;;;;;5004707;28;19917;-82
2022/12/27 08:08:54;;;;;;;;;;;5.30;99.90;;;;;;5003668;28;19910;-82
2022/12/27 08:11:20;;;;;;;;;;;5.30;99.90;;;;;;5005369;28;20303;-82
2022/12/27 08:13:45;;;;;;;;;;;5.30;99.90;;;;;;5002963;28;19969;-82
2022/12/27 08:16:16;;;;;;;;;;;5.40;99.90;;;;;;5003735;28;19910;-81
2022/12/27 08:18:42;;;;;;;;;;;5.30;99.90;;;;;;5005268;28;19914;-82
2022/12/27 08:21:07;;;;;;;;;;;5.40;99.90;;;;;;5004360;28;19910;-82
2022/12/27 08:23:32;;;;;;;;;;;5.40;99.90;;;;;;5002349;28;20283;-82
2022/12/27 08:25:58;;;;;;;;;;;5.40;99.90;;;;;;5021326;28;19910;-82
2022/12/27 08:28:23;;;;;;;;;;;5.50;99.90;;;;;;5022077;28;19909;-82
2022/12/27 08:30:49;;;;;;;;;;;5.50;99.90;;;;;;5022937;28;20363;-82
2022/12/27 08:33:14;;;;;;;;;;;5.50;99.90;;;;;;5004398;28;19914;-81
2022/12/27 08:35:41;;;;;;;;;;;5.50;99.90;;;;;;5004105;28;19996;-82
2022/12/27 08:38:07;;;;;;;;;;;5.60;99.90;;;;;;5013695;28;20004;-82
2022/12/27 08:40:33;;;;;;;;;;;5.60;99.90;;;;;;5021527;28;20497;-82
2022/12/27 08:42:58;;;;;;;;;;;5.70;99.90;;;;;;5021918;28;19914;-81
2022/12/27 08:45:24;;;;;;;;;;;5.70;99.90;;;;;;5022961;28;19948;-81
2022/12/27 08:47:49;;;;;;;;;;;5.80;99.90;;;;;;5021511;28;20286;-82
2022/12/27 08:50:15;;;;;;;;;;;5.80;99.90;;;;;;5021947;28;19916;-82
2022/12/27 08:52:40;;;;;;;;;;;5.90;99.90;;;;;;5019731;28;20409;-82
2022/12/27 08:55:06;;;;;;;;;;;5.90;99.90;;;;;;5022479;28;20047;-82
2022/12/27 08:57:31;;;;;;;;;;;5.90;99.90;;;;;;5022161;28;20298;-82
2022/12/27 08:59:57;;;;;;;;;;;6.00;99.90;;;;;;5020154;28;19909;-83
2022/12/27 09:02:22;;;;;;;;;;;6.10;99.90;;;;;;5018465;28;19910;-83
2022/12/27 09:04:48;;;;;;;;;;;6.10;99.90;;;;;;5021838;28;20386;-83
2022/12/27 09:07:13;;;;;;;;;;;6.20;99.90;;;;;;5019968;28;19937;-83
2022/12/27 09:09:39;;;;;;;;;;;6.20;99.90;;;;;;5000134;28;19944;-81
2022/12/27 09:12:05;;;;;;;;;;;6.30;99.90;;;;;;4996226;28;19909;-82
2022/12/27 09:14:30;;;;;;;;;;;6.30;99.90;;;;;;4998056;28;19910;-81
2022/12/27 09:16:56;;;;;;;;;;;6.30;99.90;;;;;;4996884;28;20387;-82
2022/12/27 09:19:21;;;;;;;;;;;6.40;99.90;;;;;;4997389;28;19921;-82
2022/12/27 09:21:47;;;;;;;;;;;6.50;99.90;;;;;;5003850;28;19917;-82
2022/12/27 09:24:13;;;;;;;;;;;6.60;99.90;;;;;;5017018;28;19918;-82
2022/12/27 09:26:38;;;;;;;;;;;6.60;99.90;;;;;;4999477;28;20352;-82
2022/12/27 09:29:04;;;;;;;;;;;6.60;99.90;;;;;;4994555;28;20282;-82
2022/12/27 09:31:30;;;;;;;;;;;6.70;99.90;;;;;;4998977;28;19917;-83
2022/12/27 09:33:55;;;;;;;;;;;6.70;99.90;;;;;;4997375;28;19916;-81
2022/12/27 09:36:22;;;;;;;;;;;6.80;99.90;;;;;;4996945;28;20057;-83
2022/12/27 09:38:48;;;;;;;;;;;6.80;99.90;;;;;;4997828;28;19910;-82
2022/12/27 09:41:14;;;;;;;;;;;6.90;99.90;;;;;;4996606;28;20283;-82
2022/12/27 09:43:43;;;;;;;;;;;7.00;99.90;;;;;;4997434;28;20383;-83
2022/12/27 09:46:11;;;;;;;;;;;7.00;99.90;;;;;;4997741;28;19910;-83
2022/12/27 09:48:38;;;;;;;;;;;7.10;99.90;;;;;;4997949;28;20437;-83
2022/12/27 09:51:18;;;;;;;;;;;7.20;99.90;;;;;;4998667;28;20283;-82
2022/12/27 09:53:47;;;;;;;;;;;7.30;99.90;;;;;;4998179;28;19918;-81
2022/12/27 09:56:17;;;;;;;;;;;7.30;99.90;;;;;;4996178;28;20363;-82
2022/12/27 09:58:43;;;;;;;;;;;7.40;99.90;;;;;;4995910;28;20004;-81
2022/12/27 10:01:24;;;;;;;;;;;7.40;99.90;;;;;;4995844;28;19945;-82
2022/12/27 10:03:50;;;;;;;;;;;7.50;99.90;;;;;;4995862;28;20283;-80
2022/12/27 10:06:34;;;;;;;;;;;7.60;99.90;;;;;;4997433;28;19910;-79
2022/12/27 10:09:18;;;;;;;;;;;7.60;99.90;;;;;;4997087;28;19910;-81
2022/12/27 10:11:54;;;;;;;;;;;7.70;99.90;;;;;;4995963;28;19910;-81
2022/12/27 10:14:37;;;;;;;;;;;7.80;99.90;;;;;;4996272;28;20386;-81
2022/12/27 10:17:02;;;;;;;;;;;7.80;99.90;;;;;;4996111;28;19960;-81
2022/12/27 10:19:33;;;;;;;;;;;7.90;99.90;;;;;;4998485;28;19909;-80
2022/12/27 10:22:17;;;;;;;;;;;7.90;99.90;;;;;;4998140;28;19910;-81
2022/12/27 10:24:46;;;;;;;;;;;8.00;99.90;;;;;;4997504;28;19913;-80
2022/12/27 10:27:22;;;;;;;;;;;8.00;99.90;;;;;;4995195;28;20029;-83
2022/12/27 10:29:50;;;;;;;;;;;8.10;99.90;;;;;;4996484;28;19937;-81
2022/12/27 10:32:16;;;;;;;;;;;8.20;99.90;;;;;;4995315;28;19909;-83
2022/12/27 10:34:42;;;;;;;;;;;8.30;99.90;;;;;;4995189;28;19941;-83
2022/12/27 10:37:12;;;;;;;;;;;8.30;99.90;;;;;;4996208;28;19910;-81
2022/12/27 10:39:41;;;;;;;;;;;8.40;99.90;;;;;;4996946;28;19949;-82
2022/12/27 10:42:18;;;;;;;;;;;8.50;99.90;;;;;;4994314;28;19976;-82
2022/12/27 10:44:44;;;;;;;;;;;8.60;99.90;;;;;;5002604;28;19918;-81
2022/12/27 10:47:09;;;;;;;;;;;8.60;99.90;;;;;;4998066;28;19940;-80
2022/12/27 10:49:35;;;;;;;;;;;8.60;99.90;;;;;;4999965;28;19909;-81
2022/12/27 10:52:09;;;;;;;;;;;8.70;99.90;;;;;;5002987;28;19920;-81
2022/12/27 10:54:47;;;;;;;;;;;8.70;99.90;;;;;;5015931;28;19917;-81
2022/12/27 10:57:17;;;;;;;;;;;8.80;99.90;;;;;;5012482;28;19910;-80
2022/12/27 10:59:43;;;;;;;;;;;8.70;99.90;;;;;;5012025;28;19945;-80
2022/12/27 11:02:16;;;;;;;;;;;8.70;99.90;;;;;;5013487;28;20386;-81
2022/12/27 11:04:54;;;;;;;;;;;8.80;99.90;;;;;;5014921;28;19917;-81
2022/12/27 11:07:20;;;;;;;;;;;8.80;99.90;;;;;;5013006;28;19910;-82
2022/12/27 11:09:45;;;;;;;;;;;8.70;99.90;;;;;;4993376;28;19917;-80
2022/12/27 11:12:17;;;;;;;;;;;8.70;99.90;;;;;;4977911;28;20064;-80
2022/12/27 11:14:58;;;;;;;;;;;8.80;99.90;;;;;;4997692;28;19920;-80
2022/12/27 11:17:43;;;;;;;;;;;8.90;99.90;;;;;;4999373;28;19910;-80
2022/12/27 11:20:15;;;;;;;;;;;9.00;99.90;;;;;;4997459;28;19910;-80
2022/12/27 11:22:45;;;;;;;;;;;9.00;99.90;;;;;;5012554;28;20286;-80
2022/12/27 11:25:12;;;;;;;;;;;9.20;99.90;;;;;;5016564;28;20217;-80
2022/12/27 11:27:38;;;;;;;;;;;9.40;99.90;;;;;;5016905;28;19910;-80
2022/12/27 11:30:03;;;;;;;;;;;9.70;99.90;;;;;;5016601;28;20367;-80
2022/12/27 11:32:30;;;;;;;;;;;9.90;99.90;;;;;;5017148;28;19909;-80
2022/12/27 11:34:55;;;;;;;;;;;10.10;99.90;;;;;;5016706;28;19909;-80
2022/12/27 11:37:23;;;;;;;;;;;9.90;99.90;;;;;;5017537;28;19964;-80
2022/12/27 11:39:53;;;;;;;;;;;10.00;99.90;;;;;;5018115;28;20330;-80
2022/12/27 11:42:38;;;;;;;;;;;10.00;99.90;;;;;;5016304;28;19933;-80
2022/12/27 11:45:22;;;;;;;;;;;10.20;99.90;;;;;;5016097;28;19932;-80
2022/12/27 11:48:03;;;;;;;;;;;10.50;99.90;;;;;;5016033;28;19946;-80
2022/12/27 11:50:47;;;;;;;;;;;10.40;99.90;;;;;;5017537;28;20379;-81
2022/12/27 11:53:31;;;;;;;;;;;10.20;99.90;;;;;;5015726;28;20011;-81
2022/12/27 11:56:16;;;;;;;;;;;10.30;99.90;;;;;;5015917;28;19909;-80
2022/12/27 11:59:01;;;;;;;;;;;10.60;99.90;;;;;;5015912;28;19952;-80
2022/12/27 12:01:27;;;;;;;;;;;11.70;99.90;;;;;;5005108;28;20001;-80
2022/12/27 12:03:52;;;;;;;;;;;13.70;99.90;;;;;;5015479;28;20354;-80
2022/12/27 12:06:33;;;;;;;;;;;15.40;99.90;;;;;;5015501;28;19921;-81
2022/12/27 12:09:07;;;;;;;;;;;17.00;99.90;;;;;;5015907;28;19909;-81
2022/12/27 12:11:51;;;;;;;;;;;19.10;99.90;;;;;;5016834;28;19909;-81
2022/12/27 12:14:23;;;;;;;;;;;18.20;99.90;;;;;;5016544;28;19910;-80
2022/12/27 12:16:49;;;;;;;;;;;16.10;99.90;;;;;;5016724;28;19960;-81
2022/12/27 12:19:27;;;;;;;;;;;14.80;99.90;;;;;;5015265;28;19909;-81
2022/12/27 12:21:59;;;;;;;;;;;14.00;99.90;;;;;;5015832;28;19909;-80
2022/12/27 12:24:24;;;;;;;;;;;13.20;99.90;;;;;;5015426;28;20470;-80
2022/12/27 12:26:57;;;;;;;;;;;12.80;99.90;;;;;;5015203;28;19945;-81
2022/12/27 12:29:22;;;;;;;;;;;12.50;99.90;;;;;;5016555;28;20326;-80
2022/12/27 12:31:54;;;;;;;;;;;12.20;99.90;;;;;;5014994;28;19914;-81
2022/12/27 12:34:35;;;;;;;;;;;12.00;99.90;;;;;;5016456;28;19937;-81
2022/12/27 12:37:07;;;;;;;;;;;11.80;99.90;;;;;;4993056;28;19917;-81
2022/12/27 12:39:38;;;;;;;;;;;11.60;99.90;;;;;;4983204;28;19989;-82
2022/12/27 12:42:04;;;;;;;;;;;11.40;99.90;;;;;;4994267;28;20119;-81
2022/12/27 12:44:48;;;;;;;;;;;11.10;99.90;;;;;;4998150;28;20427;-81
2022/12/27 12:47:22;;;;;;;;;;;11.00;99.90;;;;;;5005229;28;19914;-81
2022/12/27 12:49:54;;;;;;;;;;;11.00;99.90;;;;;;4994765;28;19920;-81
2022/12/27 12:52:37;;;;;;;;;;;10.80;99.90;;;;;;4995207;28;19941;-80
2022/12/27 12:55:25;;;;;;;;;;;10.80;99.90;;;;;;4994240;28;19949;-81
2022/12/27 12:57:51;;;;;;;;;;;10.80;99.90;;;;;;4994363;28;19918;-81
2022/12/27 13:00:23;;;;;;;;;;;10.90;99.90;;;;;;4991296;28;19917;-81
2022/12/27 13:03:07;;;;;;;;;;;10.80;99.90;;;;;;4995074;28;19918;-81
2022/12/27 13:05:33;;;;;;;;;;;11.00;99.90;;;;;;4993794;28;20287;-80
2022/12/27 13:08:17;;;;;;;;;;;11.10;99.90;;;;;;4993495;28;19911;-80
2022/12/27 13:10:43;;;;;;;;;;;11.20;99.90;;;;;;4994498;28;19913;-81
2022/12/27 13:13:09;;;;;;;;;;;11.30;99.90;;;;;;4993817;28;20390;-81
2022/12/27 13:15:53;;;;;;;;;;;11.20;99.90;;;;;;4993835;28;19999;-81
2022/12/27 13:18:40;;;;;;;;;;;11.30;99.90;;;;;;4993463;28;19910;-81
2022/12/27 13:21:12;;;;;;;;;;;10.90;99.90;;;;;;4993721;28;20360;-81
2022/12/27 13:23:56;;;;;;;;;;;10.80;99.90;;;;;;5008709;28;20478;-81
2022/12/27 13:26:28;;;;;;;;;;;10.90;99.90;;;;;;5013955;28;19910;-80
2022/12/27 13:29:12;;;;;;;;;;;10.80;99.90;;;;;;5014390;28;19967;-82
2022/12/27 13:31:47;;;;;;;;;;;10.80;99.90;;;;;;5012425;28;19913;-81
2022/12/27 13:34:33;;;;;;;;;;;10.70;99.90;;;;;;5013615;28;20445;-81
2022/12/27 13:36:58;;;;;;;;;;;10.70;99.90;;;;;;5012976;28;19910;-81
2022/12/27 13:39:24;;;;;;;;;;;10.80;99.90;;;;;;5013266;28;19932;-80
2022/12/27 13:42:09;;;;;;;;;;;10.80;99.90;;;;;;5012769;28;19932;-81
2022/12/27 13:44:52;;;;;;;;;;;10.80;99.90;;;;;;4989840;28;19914;-80
2022/12/27 13:47:33;;;;;;;;;;;10.60;99.90;;;;;;4975529;28;20008;-80
2022/12/27 13:50:19;;;;;;;;;;;10.60;99.90;;;;;;5007075;28;19909;-82
2022/12/27 13:55:10;;;;;;;;;;;10.30;99.90;;;;;;5043733;23;19933;-85
2022/12/27 13:57:41;;;;;;;;;;;10.40;99.90;;;;;;5032782;28;19941;-85
2022/12/27 14:00:10;;;;;;;;;;;10.30;99.90;;;;;;5025108;28;19913;-84
2022/12/27 14:02:35;;;;;;;;;;;10.40;99.90;;;;;;5033028;28;19909;-85
2022/12/27 14:05:01;;;;;;;;;;;10.30;99.90;;;;;;5033032;28;20279;-85
2022/12/27 14:07:32;;;;;;;;;;;10.30;99.90;;;;;;5048869;28;19970;-87
2022/12/27 14:10:14;;;;;;;;;;;10.40;99.90;;;;;;5034371;28;19913;-86
2022/12/27 14:13:15;;;;;;;;;;;10.40;99.90;;;;;;5033815;28;19917;-86
2022/12/27 14:16:09;;;;;;;;;;;10.40;99.90;;;;;;4977567;28;19913;-85
2022/12/27 14:18:37;;;;;;;;;;;10.30;99.90;;;;;;5009386;28;19917;-85
2022/12/27 14:21:26;;;;;;;;;;;10.30;99.90;;;;;;5004360;28;20430;-86
2022/12/27 14:23:59;;;;;;;;;;;10.20;99.90;;;;;;5008714;28;20264;-85
2022/12/27 14:26:43;;;;;;;;;;;10.20;99.90;;;;;;5027232;28;19916;-85
2022/12/27 14:29:12;;;;;;;;;;;10.10;99.90;;;;;;5049080;28;19909;-84
2022/12/27 14:31:37;;;;;;;;;;;10.10;99.90;;;;;;5033729;28;19914;-85
2022/12/27 14:34:15;;;;;;;;;;;10.10;99.90;;;;;;5015329;28;20260;-85
2022/12/27 14:36:40;;;;;;;;;;;10.10;99.90;;;;;;5012132;28;19960;-85
2022/12/27 14:39:09;;;;;;;;;;;9.90;99.90;;;;;;5014308;28;19909;-85
2022/12/27 14:41:46;;;;;;;;;;;9.90;99.90;;;;;;5012463;28;19956;-85
2022/12/27 14:44:34;;;;;;;;;;;9.90;99.90;;;;;;5011858;28;19913;-85
2022/12/27 14:47:11;;;;;;;;;;;10.00;99.90;;;;;;5012895;28;20016;-85
2022/12/27 14:49:55;;;;;;;;;;;9.90;99.90;;;;;;5012790;28;19920;-85
2022/12/27 14:52:40;;;;;;;;;;;9.90;99.90;;;;;;5013866;28;19909;-85
2022/12/27 14:55:25;;;;;;;;;;;9.90;99.90;;;;;;5012290;28;20409;-85
2022/12/27 14:58:00;;;;;;;;;;;9.90;99.90;;;;;;5013852;28;20421;-85
2022/12/27 15:00:28;;;;;;;;;;;9.90;99.90;;;;;;5012829;28;20283;-85
2022/12/27 15:03:12;;;;;;;;;;;9.90;99.90;;;;;;5014471;28;19913;-86
2022/12/27 15:05:37;;;;;;;;;;;9.90;99.90;;;;;;5012099;28;20485;-85
2022/12/27 15:08:14;;;;;;;;;;;9.90;99.90;;;;;;5012001;28;19916;-86
2022/12/27 15:10:39;;;;;;;;;;;9.90;99.90;;;;;;5013359;28;20363;-85
2022/12/27 15:13:12;;;;;;;;;;;9.90;99.90;;;;;;5013090;28;19913;-84
2022/12/27 15:15:46;;;;;;;;;;;9.90;99.90;;;;;;5012524;28;19922;-85
2022/12/27 15:18:15;;;;;;;;;;;9.90;99.90;;;;;;5012867;28;19917;-85
2022/12/27 15:20:51;;;;;;;;;;;9.90;99.90;;;;;;5014548;28;20378;-85
2022/12/27 15:23:37;;;;;;;;;;;9.90;99.90;;;;;;5011871;28;19913;-87
2022/12/27 15:26:20;;;;;;;;;;;9.90;99.90;;;;;;4981588;28;19910;-87
2022/12/27 15:29:05;;;;;;;;;;;9.80;99.90;;;;;;4991896;28;19917;-87
2022/12/27 15:31:42;;;;;;;;;;;9.80;99.90;;;;;;4991085;28;20323;-87
2022/12/27 15:34:26;;;;;;;;;;;9.80;99.90;;;;;;4992879;28;20028;-87
2022/12/27 15:37:27;;;;;;;;;;;9.80;99.90;;;;;;4991571;28;20721;-87
2022/12/27 15:39:52;;;;;;;;;;;9.70;99.90;;;;;;4991863;28;19917;-87
2022/12/27 15:42:38;;;;;;;;;;;9.50;99.90;;;;;;4991598;28;20558;-88
2022/12/27 15:45:12;;;;;;;;;;;9.40;99.90;;;;;;4994142;28;20361;-86
2022/12/27 15:47:57;;;;;;;;;;;9.30;99.90;;;;;;4993787;28;19917;-87
2022/12/27 15:50:27;;;;;;;;;;;9.20;99.90;;;;;;4991960;28;19910;-87
2022/12/27 15:52:56;;;;;;;;;;;9.10;99.90;;;;;;4991630;28;20494;-87
2022/12/27 15:55:57;;;;;;;;;;;9.00;99.90;;;;;;5006318;28;19952;-88
2022/12/27 15:58:23;;;;;;;;;;;8.90;99.90;;;;;;4958672;28;20278;-86
2022/12/27 16:01:07;;;;;;;;;;;8.80;99.90;;;;;;5019139;28;20390;-86
2022/12/27 16:03:34;;;;;;;;;;;8.70;99.90;;;;;;5014783;28;19953;-87
2022/12/27 16:06:00;;;;;;;;;;;8.70;99.90;;;;;;5016246;28;19913;-86
2022/12/27 16:08:33;;;;;;;;;;;8.60;99.90;;;;;;5015963;28;19963;-87
2022/12/27 16:10:59;;;;;;;;;;;8.60;99.90;;;;;;5014106;28;19909;-87
2022/12/27 16:13:31;;;;;;;;;;;8.50;99.90;;;;;;5015262;28;19916;-87
2022/12/27 16:15:57;;;;;;;;;;;8.50;99.90;;;;;;5015202;28;19910;-87
2022/12/27 16:18:22;;;;;;;;;;;8.40;99.90;;;;;;5016520;28;20397;-86
2022/12/27 16:20:55;;;;;;;;;;;8.40;99.90;;;;;;5017389;28;20325;-85
2022/12/27 16:23:22;;;;;;;;;;;8.40;99.90;;;;;;5015508;28;19913;-86
2022/12/27 16:25:48;;;;;;;;;;;8.40;99.90;;;;;;5014922;28;19968;-86